Time;durP1;ratioP1;P1;durP2;ratioP2;P2;SDS_P1;SDS_P2;PMS_P1;PMS_P2;Temp;Humidity;BMP_temperature;BMP_pressure;BME280_temperature;BME280_humidity;BME280_pressure;Samples;Min_cycle;Max_cycle;Signal;HPM_P1;HPM_P2
2022/01/25 00:08:39;;;;;;;51.80;18.67;;;;;;;;;;5001557;28;20052;-50
2022/01/25 00:24:53;;;;;;;45.03;17.00;;;;;;;;;;5000272;28;20045;-53
2022/01/25 00:32:14;;;;;;;48.28;16.92;;;;;;;;;;5000890;28;20386;-51
2022/01/25 00:34:40;;;;;;;49.60;18.13;;;;;;;;;;5001340;28;20026;-52
2022/01/25 00:37:06;;;;;;;42.78;17.00;;;;;;;;;;5001526;28;20037;-53
2022/01/25 00:39:31;;;;;;;52.50;17.55;;;;;;;;;;5006000;28;20036;-52
2022/01/25 00:41:57;;;;;;;43.30;17.13;;;;;;;;;;4997829;28;20111;-53
2022/01/25 00:44:24;;;;;;;49.80;17.83;;;;;;;;;;5001193;28;20133;-54
2022/01/25 00:46:49;;;;;;;50.92;18.13;;;;;;;;;;4999470;28;20323;-53
2022/01/25 00:49:25;;;;;;;52.03;17.58;;;;;;;;;;4998190;28;20099;-54
2022/01/25 00:56:50;;;;;;;43.80;17.15;;;;;;;;;;4997172;28;20099;-55
2022/01/25 00:59:19;;;;;;;51.75;16.85;;;;;;;;;;4999213;28;20029;-53
2022/01/25 01:01:48;;;;;;;55.50;18.10;;;;;;;;;;4999807;28;20117;-51
2022/01/25 01:04:14;;;;;;;46.15;15.73;;;;;;;;;;5002285;28;20034;-52
2022/01/25 01:06:42;;;;;;;53.28;17.73;;;;;;;;;;4999448;28;20496;-52
2022/01/25 01:09:09;;;;;;;52.75;17.38;;;;;;;;;;4995593;28;20431;-57
2022/01/25 01:11:42;;;;;;;46.40;16.77;;;;;;;;;;5000236;28;20036;-54
2022/01/25 01:14:27;;;;;;;50.90;17.55;;;;;;;;;;5000108;28;20054;-53
2022/01/25 01:44:00;;;;;;;36.28;13.55;;;;;;;;;;4998599;28;20591;-54
2022/01/25 01:46:37;;;;;;;43.78;14.60;;;;;;;;;;5001547;28;20324;-54
2022/01/25 01:49:06;;;;;;;50.90;15.27;;;;;;;;;;4986531;28;20388;-54
2022/01/25 01:51:35;;;;;;;44.78;14.23;;;;;;;;;;5002665;28;20025;-54
2022/01/25 01:54:14;;;;;;;41.28;14.43;;;;;;;;;;5003514;28;20026;-53
2022/01/25 01:56:41;;;;;;;36.75;14.30;;;;;;;;;;5003986;28;20500;-52
2022/01/25 01:59:10;;;;;;;41.50;14.60;;;;;;;;;;5004075;28;20492;-53
2022/01/25 02:01:37;;;;;;;34.00;13.25;;;;;;;;;;4998917;28;20025;-53
2022/01/25 02:04:05;;;;;;;34.25;13.35;;;;;;;;;;5001885;28;20029;-50
2022/01/25 02:06:31;;;;;;;37.90;13.35;;;;;;;;;;5001812;28;20445;-54
2022/01/25 02:08:57;;;;;;;34.47;12.60;;;;;;;;;;5002428;28;20030;-53
2022/01/25 02:11:23;;;;;;;40.17;14.32;;;;;;;;;;5001897;28;20260;-54
2022/01/25 02:13:49;;;;;;;39.63;14.02;;;;;;;;;;5002109;28;20058;-51
2022/01/25 02:16:34;;;;;;;40.08;13.13;;;;;;;;;;5005592;28;20101;-52
2022/01/25 02:24:33;;;;;;;37.05;13.30;;;;;;;;;;5001915;28;20048;-53
2022/01/25 02:27:00;;;;;;;30.52;13.52;;;;;;;;;;5002382;28;20030;-53
2022/01/25 02:29:25;;;;;;;35.35;12.32;;;;;;;;;;5001514;28;20051;-53
2022/01/25 02:31:54;;;;;;;36.85;12.73;;;;;;;;;;5005068;28;20036;-53
2022/01/25 02:34:22;;;;;;;31.88;11.70;;;;;;;;;;5003334;28;20049;-52
2022/01/25 02:36:59;;;;;;;33.33;12.18;;;;;;;;;;4999783;28;20026;-50
2022/01/25 02:39:25;;;;;;;32.25;12.40;;;;;;;;;;4985774;28;20022;-53
2022/01/25 02:41:54;;;;;;;38.03;13.18;;;;;;;;;;5002957;28;20030;-54
2022/01/25 02:44:25;;;;;;;32.50;12.60;;;;;;;;;;5001381;28;20405;-54
2022/01/25 02:49:32;;;;;;;39.08;13.48;;;;;;;;;;5002580;28;20038;-54
2022/01/25 02:52:02;;;;;;;41.38;14.20;;;;;;;;;;5005532;28;20758;-53
2022/01/25 02:54:29;;;;;;;32.90;13.15;;;;;;;;;;5007723;28;20045;-53
2022/01/25 02:56:55;;;;;;;35.65;13.38;;;;;;;;;;5005088;28;20043;-54
2022/01/25 02:59:21;;;;;;;38.88;14.25;;;;;;;;;;5004606;28;20045;-53
2022/01/25 03:01:48;;;;;;;44.67;15.02;;;;;;;;;;5000832;28;20026;-51
2022/01/25 03:04:15;;;;;;;40.08;14.95;;;;;;;;;;5001480;28;20120;-54
2022/01/25 03:06:42;;;;;;;41.72;13.82;;;;;;;;;;5001282;28;20037;-52
2022/01/25 03:09:08;;;;;;;37.90;13.48;;;;;;;;;;5001124;28;20048;-53
2022/01/25 03:11:34;;;;;;;39.22;14.13;;;;;;;;;;4998104;28;20031;-50
2022/01/25 03:14:03;;;;;;;35.05;14.05;;;;;;;;;;5004563;28;20112;-54
2022/01/25 03:16:42;;;;;;;36.10;14.05;;;;;;;;;;5002180;28;20027;-53
2022/01/25 03:21:58;;;;;;;32.15;12.40;;;;;;;;;;5000272;28;20060;-52
2022/01/25 03:24:24;;;;;;;36.80;13.18;;;;;;;;;;5001684;28;20087;-52
2022/01/25 03:26:49;;;;;;;36.85;13.75;;;;;;;;;;4999844;28;20022;-54
2022/01/25 03:29:15;;;;;;;36.85;13.27;;;;;;;;;;5001564;28;20120;-52
2022/01/25 03:31:41;;;;;;;38.95;13.88;;;;;;;;;;5003551;28;20076;-51
2022/01/25 03:34:06;;;;;;;39.88;13.48;;;;;;;;;;4999034;28;20052;-54
2022/01/25 03:36:32;;;;;;;36.85;12.98;;;;;;;;;;5002686;28;20088;-53
2022/01/25 03:38:58;;;;;;;37.78;14.73;;;;;;;;;;5000052;28;20064;-53
2022/01/25 03:41:25;;;;;;;40.50;14.40;;;;;;;;;;4999837;28;20519;-53
2022/01/25 03:43:54;;;;;;;42.50;14.57;;;;;;;;;;5001041;28;20040;-53
2022/01/25 03:46:32;;;;;;;42.33;14.45;;;;;;;;;;5000368;28;20501;-52
2022/01/25 03:51:42;;;;;;;37.63;13.30;;;;;;;;;;5004565;28;20037;-53
2022/01/25 03:54:08;;;;;;;31.65;12.23;;;;;;;;;;5002993;28;20042;-51
2022/01/25 03:56:34;;;;;;;35.42;14.05;;;;;;;;;;4996063;28;20030;-53
2022/01/25 03:59:00;;;;;;;40.42;14.95;;;;;;;;;;4998343;28;20121;-53
2022/01/25 04:01:25;;;;;;;35.72;13.65;;;;;;;;;;5001279;28;20328;-53
2022/01/25 04:06:23;;;;;;;38.33;14.33;;;;;;;;;;5008546;28;20041;-53
2022/01/25 04:08:49;;;;;;;39.38;13.25;;;;;;;;;;5000405;28;20091;-52
2022/01/25 04:11:15;;;;;;;37.47;14.38;;;;;;;;;;5002173;28;20030;-53
2022/01/25 04:13:40;;;;;;;41.17;13.90;;;;;;;;;;4998451;28;20041;-52
2022/01/25 04:16:19;;;;;;;37.88;12.20;;;;;;;;;;5003702;28;20079;-54
2022/01/25 04:18:56;;;;;;;38.85;14.32;;;;;;;;;;5002145;28;20040;-52
2022/01/25 04:26:45;;;;;;;37.28;13.15;;;;;;;;;;5003557;28;20049;-50
2022/01/25 04:29:11;;;;;;;38.28;13.80;;;;;;;;;;4996742;28;20034;-53
2022/01/25 04:31:37;;;;;;;38.20;13.77;;;;;;;;;;4997389;28;20041;-54
2022/01/25 04:34:11;;;;;;;41.40;14.18;;;;;;;;;;4999177;28;20040;-53
2022/01/25 04:50:07;;;;;;;30.38;11.75;;;;;;;;;;5002090;28;20157;-54
2022/01/25 04:52:41;;;;;;;32.15;12.18;;;;;;;;;;5002436;28;20033;-53
2022/01/25 04:55:17;;;;;;;39.05;13.15;;;;;;;;;;4996354;28;20068;-52
2022/01/25 04:57:53;;;;;;;33.97;12.23;;;;;;;;;;4997853;28;20092;-52
2022/01/25 05:00:21;;;;;;;39.60;12.60;;;;;;;;;;4993641;28;20061;-53
2022/01/25 05:05:19;;;;;;;31.30;12.25;;;;;;;;;;5000963;28;20049;-53
2022/01/25 05:07:58;;;;;;;37.20;12.13;;;;;;;;;;5003654;28;20184;-53
2022/01/25 05:10:24;;;;;;;32.15;12.05;;;;;;;;;;4998498;28;20599;-52
2022/01/25 05:13:10;;;;;;;31.58;12.52;;;;;;;;;;5003646;28;20085;-53
2022/01/25 05:16:28;;;;;;;29.88;12.10;;;;;;;;;;4999413;28;20037;-52
2022/01/25 05:18:36;;;;;;;32.28;11.50;;;;;;;;;;4987079;28;20050;-53
2022/01/25 05:23:46;;;;;;;33.55;12.40;;;;;;;;;;5006597;28;20067;-53
2022/01/25 05:26:12;;;;;;;32.90;12.18;;;;;;;;;;5005491;28;20473;-53
2022/01/25 05:28:37;;;;;;;35.67;12.48;;;;;;;;;;5000975;28;20151;-54
2022/01/25 05:31:03;;;;;;;28.40;10.80;;;;;;;;;;4976144;28;20045;-53
2022/01/25 05:33:28;;;;;;;30.73;11.93;;;;;;;;;;5003175;28;20046;-53
2022/01/25 05:35:54;;;;;;;32.92;11.15;;;;;;;;;;5002128;28;20034;-54
2022/01/25 05:38:19;;;;;;;32.08;12.60;;;;;;;;;;5005310;28;20421;-53
2022/01/25 05:40:56;;;;;;;32.30;12.55;;;;;;;;;;4986148;28;20030;-54
2022/01/25 05:48:38;;;;;;;37.10;12.43;;;;;;;;;;4986924;28;20045;-54
2022/01/25 05:51:04;;;;;;;37.97;11.48;;;;;;;;;;5004177;28;20038;-53
2022/01/25 05:53:29;;;;;;;34.25;13.02;;;;;;;;;;4990360;28;20022;-54
2022/01/25 05:55:55;;;;;;;34.08;12.60;;;;;;;;;;5004032;28;20025;-52
2022/01/25 05:58:21;;;;;;;43.42;13.40;;;;;;;;;;5002215;28;20041;-51
2022/01/25 06:00:47;;;;;;;42.00;13.93;;;;;;;;;;5003110;28;20120;-54
2022/01/25 06:03:13;;;;;;;39.22;13.10;;;;;;;;;;5003553;28;20173;-54
2022/01/25 06:05:38;;;;;;;35.55;12.05;;;;;;;;;;4999297;28;20048;-53
2022/01/25 06:08:04;;;;;;;27.75;11.10;;;;;;;;;;5004503;28;20348;-52
2022/01/25 06:10:31;;;;;;;31.10;11.65;;;;;;;;;;4998841;28;20041;-52
2022/01/25 06:12:57;;;;;;;34.45;12.13;;;;;;;;;;5004507;28;20080;-54
2022/01/25 06:15:22;;;;;;;35.15;11.80;;;;;;;;;;5007419;28;20441;-54
2022/01/25 06:17:49;;;;;;;30.92;12.25;;;;;;;;;;5002904;28;20468;-53
2022/01/25 06:20:15;;;;;;;36.25;11.30;;;;;;;;;;5010796;28;20121;-53
2022/01/25 06:22:41;;;;;;;32.20;13.35;;;;;;;;;;5002878;28;20033;-51
2022/01/25 06:25:07;;;;;;;36.78;12.15;;;;;;;;;;5001237;28;20026;-52
2022/01/25 06:27:33;;;;;;;30.98;12.73;;;;;;;;;;5005817;28;20038;-54
2022/01/25 06:29:58;;;;;;;28.55;12.10;;;;;;;;;;5000797;28;20044;-52
2022/01/25 06:32:24;;;;;;;30.05;11.45;;;;;;;;;;5001787;28;20423;-53
2022/01/25 06:34:50;;;;;;;34.15;11.98;;;;;;;;;;4982968;28;20529;-54
2022/01/25 06:37:15;;;;;;;34.42;11.95;;;;;;;;;;4984552;28;20462;-53
2022/01/25 06:39:42;;;;;;;32.78;11.90;;;;;;;;;;5001703;28;20045;-54
2022/01/25 06:42:08;;;;;;;32.72;12.13;;;;;;;;;;5001091;28;20038;-54
2022/01/25 06:44:36;;;;;;;34.95;13.25;;;;;;;;;;5003175;28;20030;-54
2022/01/25 06:47:02;;;;;;;38.17;11.70;;;;;;;;;;5001948;28;20077;-53
2022/01/25 06:49:28;;;;;;;33.00;11.88;;;;;;;;;;5000599;28;20039;-53
2022/01/25 06:51:54;;;;;;;37.40;11.65;;;;;;;;;;5004431;28;20034;-53
2022/01/25 06:54:19;;;;;;;32.97;11.27;;;;;;;;;;4988343;28;20038;-51
2022/01/25 06:56:45;;;;;;;29.92;10.75;;;;;;;;;;5003565;28;20034;-53
2022/01/25 06:59:10;;;;;;;27.27;10.30;;;;;;;;;;5002097;28;20085;-52
2022/01/25 07:01:36;;;;;;;30.38;11.18;;;;;;;;;;4998333;28;20037;-53
2022/01/25 07:04:02;;;;;;;31.77;10.95;;;;;;;;;;5001788;28;20484;-53
2022/01/25 07:06:28;;;;;;;30.80;11.57;;;;;;;;;;5000900;28;20033;-53
2022/01/25 07:08:54;;;;;;;30.60;11.07;;;;;;;;;;5002276;28;20060;-54
2022/01/25 07:11:20;;;;;;;35.45;12.10;;;;;;;;;;4999029;28;20611;-54
2022/01/25 07:13:47;;;;;;;27.55;10.15;;;;;;;;;;5002996;28;20255;-53
2022/01/25 07:16:13;;;;;;;30.23;10.57;;;;;;;;;;5002165;28;20069;-54
2022/01/25 07:18:39;;;;;;;28.95;10.07;;;;;;;;;;4997596;28;20037;-53
2022/01/25 07:21:04;;;;;;;35.65;11.35;;;;;;;;;;4996205;28;20088;-52
2022/01/25 07:23:30;;;;;;;28.13;10.85;;;;;;;;;;4999483;28;20029;-53
2022/01/25 07:25:56;;;;;;;24.85;10.65;;;;;;;;;;4996091;28;20542;-52
2022/01/25 07:28:21;;;;;;;25.88;10.57;;;;;;;;;;5002472;28;20471;-53
2022/01/25 07:30:47;;;;;;;29.98;11.30;;;;;;;;;;5002032;28;20030;-52
2022/01/25 07:33:12;;;;;;;35.95;11.07;;;;;;;;;;4998117;28;20495;-53
2022/01/25 07:35:39;;;;;;;35.10;10.98;;;;;;;;;;4999933;28;20066;-51
2022/01/25 07:38:05;;;;;;;29.23;10.75;;;;;;;;;;4998503;28;20042;-52
2022/01/25 07:40:34;;;;;;;34.97;11.65;;;;;;;;;;4997346;28;20038;-53
2022/01/25 07:42:59;;;;;;;36.72;10.93;;;;;;;;;;4997547;28;20508;-54
2022/01/25 07:45:25;;;;;;;27.90;10.43;;;;;;;;;;4996276;28;20038;-55
2022/01/25 07:47:50;;;;;;;30.40;10.32;;;;;;;;;;5001707;28;20038;-53
2022/01/25 07:50:17;;;;;;;29.15;10.65;;;;;;;;;;4995808;28;20085;-51
2022/01/25 07:52:42;;;;;;;33.67;10.95;;;;;;;;;;5000029;28;20026;-52
2022/01/25 07:55:08;;;;;;;35.85;11.02;;;;;;;;;;5000066;28;20064;-53
2022/01/25 07:57:34;;;;;;;33.10;10.80;;;;;;;;;;4999238;28;20485;-50
2022/01/25 08:00:01;;;;;;;25.50;10.82;;;;;;;;;;4999320;28;20042;-53
2022/01/25 08:02:26;;;;;;;30.20;10.52;;;;;;;;;;5002408;28;20522;-51
2022/01/25 08:04:52;;;;;;;34.92;10.85;;;;;;;;;;4993855;28;20114;-52
2022/01/25 08:07:18;;;;;;;32.45;10.43;;;;;;;;;;4997754;28;20390;-50
2022/01/25 08:09:44;;;;;;;28.00;11.32;;;;;;;;;;4996180;28;20037;-51
2022/01/25 08:12:11;;;;;;;31.48;10.90;;;;;;;;;;5000964;28;20053;-50
2022/01/25 08:14:38;;;;;;;30.50;10.50;;;;;;;;;;5002751;28;20076;-53
2022/01/25 08:17:05;;;;;;;38.65;13.25;;;;;;;;;;4998863;28;20034;-53
2022/01/25 08:19:31;;;;;;;31.35;11.98;;;;;;;;;;5002232;28;20092;-55
2022/01/25 08:21:57;;;;;;;33.92;11.20;;;;;;;;;;4999475;28;20497;-56
2022/01/25 08:24:22;;;;;;;33.85;12.90;;;;;;;;;;4996141;28;20157;-57
2022/01/25 08:26:48;;;;;;;32.97;12.60;;;;;;;;;;4981156;28;20038;-56
2022/01/25 08:29:14;;;;;;;41.13;12.35;;;;;;;;;;4998341;28;20018;-56
2022/01/25 08:31:40;;;;;;;35.67;12.02;;;;;;;;;;5000449;28;20519;-56
2022/01/25 08:34:07;;;;;;;35.40;12.48;;;;;;;;;;5004754;28;20049;-56
2022/01/25 08:36:33;;;;;;;28.85;11.23;;;;;;;;;;4999832;28;20080;-56
2022/01/25 08:38:59;;;;;;;37.03;12.52;;;;;;;;;;5002098;28;20069;-57
2022/01/25 08:41:25;;;;;;;31.10;12.05;;;;;;;;;;4977818;28;20378;-51
2022/01/25 08:43:51;;;;;;;35.50;11.32;;;;;;;;;;4988088;28;20677;-52
2022/01/25 08:46:17;;;;;;;43.35;13.38;;;;;;;;;;5004081;28;20080;-53
2022/01/25 08:48:45;;;;;;;32.85;11.77;;;;;;;;;;5004280;28;20033;-53
2022/01/25 08:51:11;;;;;;;36.17;13.02;;;;;;;;;;5001265;28;20041;-51
2022/01/25 08:53:37;;;;;;;30.92;13.10;;;;;;;;;;4998070;28;20108;-52
2022/01/25 08:56:03;;;;;;;29.02;10.75;;;;;;;;;;5000396;28;20046;-53
2022/01/25 08:58:28;;;;;;;38.72;12.52;;;;;;;;;;5003391;28;20037;-53
2022/01/25 09:00:55;;;;;;;38.53;11.40;;;;;;;;;;5003844;28;20042;-53
2022/01/25 09:03:20;;;;;;;37.10;13.43;;;;;;;;;;5002741;28;20514;-53
2022/01/25 09:05:46;;;;;;;41.13;13.70;;;;;;;;;;5003914;28;20049;-52
2022/01/25 09:08:19;;;;;;;33.53;13.20;;;;;;;;;;5004463;28;20028;-53
2022/01/25 09:10:44;;;;;;;37.42;13.40;;;;;;;;;;5003516;28;20543;-53
2022/01/25 09:13:10;;;;;;;42.33;14.18;;;;;;;;;;5005142;28;20376;-52
2022/01/25 09:15:35;;;;;;;59.47;16.25;;;;;;;;;;5005787;28;20048;-52
2022/01/25 09:18:01;;;;;;;45.90;14.27;;;;;;;;;;5004504;28;20030;-53
2022/01/25 09:20:26;;;;;;;32.17;13.05;;;;;;;;;;5001981;28;20118;-52
2022/01/25 09:22:52;;;;;;;36.90;13.18;;;;;;;;;;5009706;28;20386;-54
2022/01/25 09:25:18;;;;;;;31.50;13.63;;;;;;;;;;5005121;28;20030;-51
2022/01/25 09:27:44;;;;;;;32.65;13.40;;;;;;;;;;5008616;28;20025;-53
2022/01/25 09:30:10;;;;;;;37.58;13.80;;;;;;;;;;5005676;28;20411;-53
2022/01/25 09:32:36;;;;;;;35.47;14.13;;;;;;;;;;5005948;28;20554;-53
2022/01/25 09:35:02;;;;;;;37.03;13.57;;;;;;;;;;5005918;28;20057;-54
2022/01/25 09:37:27;;;;;;;33.10;13.13;;;;;;;;;;5004535;28;20548;-54
2022/01/25 09:39:53;;;;;;;41.47;13.98;;;;;;;;;;5004982;28;20045;-53
2022/01/25 09:42:20;;;;;;;31.42;12.52;;;;;;;;;;5006305;28;20041;-53
2022/01/25 09:44:46;;;;;;;32.15;11.68;;;;;;;;;;5007971;28;20033;-53
2022/01/25 09:47:11;;;;;;;29.60;13.02;;;;;;;;;;5005243;28;20022;-54
2022/01/25 09:49:37;;;;;;;34.95;12.52;;;;;;;;;;5002354;28;20022;-54
2022/01/25 09:52:08;;;;;;;36.08;12.18;;;;;;;;;;5005736;28;20481;-52
2022/01/25 09:54:35;;;;;;;34.22;12.77;;;;;;;;;;5001095;28;20444;-53
2022/01/25 09:57:03;;;;;;;32.92;13.02;;;;;;;;;;5002579;28;20065;-54
2022/01/25 09:59:29;;;;;;;36.00;11.93;;;;;;;;;;5001384;28;20056;-53
2022/01/25 10:01:56;;;;;;;34.67;11.98;;;;;;;;;;5005530;28;20030;-52
2022/01/25 10:04:34;;;;;;;29.65;11.60;;;;;;;;;;5003868;28;20033;-53
2022/01/25 10:07:00;;;;;;;30.25;12.25;;;;;;;;;;5002622;28;20312;-51
2022/01/25 10:09:29;;;;;;;30.17;11.70;;;;;;;;;;5000462;28;20045;-53
2022/01/25 10:11:55;;;;;;;31.10;12.95;;;;;;;;;;5004967;28;20103;-52
2022/01/25 10:14:23;;;;;;;36.88;13.00;;;;;;;;;;5005583;28;20025;-53
2022/01/25 10:16:53;;;;;;;38.13;12.82;;;;;;;;;;5004612;28;20493;-53
2022/01/25 10:19:24;;;;;;;35.38;13.35;;;;;;;;;;5001909;28;20037;-52
2022/01/25 10:21:51;;;;;;;30.55;12.63;;;;;;;;;;5003920;28;20052;-53
2022/01/25 10:24:20;;;;;;;30.38;12.20;;;;;;;;;;4998496;28;20069;-52
2022/01/25 10:26:51;;;;;;;39.05;12.18;;;;;;;;;;5001935;28;20054;-53
2022/01/25 10:29:25;;;;;;;42.47;12.65;;;;;;;;;;5002276;28;20029;-52
2022/01/25 10:31:57;;;;;;;40.10;14.10;;;;;;;;;;5001479;28;20144;-54
2022/01/25 10:34:34;;;;;;;32.47;12.52;;;;;;;;;;5003785;28;20066;-53
2022/01/25 10:37:05;;;;;;;40.03;11.95;;;;;;;;;;4998610;28;20103;-54
2022/01/25 10:39:33;;;;;;;34.42;11.15;;;;;;;;;;5001586;28;20052;-52
2022/01/25 10:42:10;;;;;;;43.20;13.00;;;;;;;;;;4999478;28;20030;-53
2022/01/25 10:45:02;;;;;;;32.45;11.48;;;;;;;;;;5003525;28;20026;-53
2022/01/25 10:47:49;;;;;;;40.13;13.40;;;;;;;;;;4999414;28;20827;-54
2022/01/25 10:50:18;;;;;;;36.00;13.30;;;;;;;;;;4999019;28;20053;-52
2022/01/25 10:52:45;;;;;;;34.17;12.43;;;;;;;;;;5000731;28;20183;-54
2022/01/25 10:55:12;;;;;;;39.72;12.48;;;;;;;;;;5002973;28;20111;-53
2022/01/25 10:57:38;;;;;;;33.33;11.45;;;;;;;;;;4982089;28;20371;-59
2022/01/25 11:00:09;;;;;;;33.47;10.70;;;;;;;;;;5004180;28;20030;-57
2022/01/25 11:02:48;;;;;;;31.55;10.63;;;;;;;;;;5004853;28;20045;-57
2022/01/25 11:05:14;;;;;;;36.40;10.90;;;;;;;;;;4999707;28;20042;-56
2022/01/25 11:07:45;;;;;;;29.50;10.20;;;;;;;;;;5001952;28;20036;-56
2022/01/25 11:10:17;;;;;;;31.23;10.18;;;;;;;;;;5001716;28;20034;-56
2022/01/25 11:12:58;;;;;;;28.15;9.02;;;;;;;;;;5003240;28;20057;-56
2022/01/25 11:15:24;;;;;;;24.88;9.10;;;;;;;;;;5007058;28;20133;-55
2022/01/25 11:17:50;;;;;;;22.92;9.07;;;;;;;;;;5006194;28;20104;-56
2022/01/25 11:20:15;;;;;;;25.77;9.38;;;;;;;;;;5003403;28;20104;-56
2022/01/25 11:22:42;;;;;;;24.80;9.80;;;;;;;;;;5001988;28;20013;-55
2022/01/25 11:25:08;;;;;;;23.65;9.40;;;;;;;;;;4986125;28;20418;-56
2022/01/25 11:27:34;;;;;;;21.08;8.20;;;;;;;;;;5002687;28;20033;-55
2022/01/25 11:30:05;;;;;;;25.95;8.77;;;;;;;;;;5002084;28;20497;-56
2022/01/25 11:32:37;;;;;;;25.88;9.02;;;;;;;;;;5001278;28;20022;-54
2022/01/25 11:35:05;;;;;;;29.55;9.07;;;;;;;;;;5003573;28;20393;-54
2022/01/25 11:37:39;;;;;;;22.42;8.52;;;;;;;;;;4998106;28;20030;-56
2022/01/25 11:40:30;;;;;;;27.75;7.97;;;;;;;;;;5000694;28;20383;-56
2022/01/25 11:43:10;;;;;;;23.50;8.75;;;;;;;;;;5003598;28;20032;-56
2022/01/25 11:45:41;;;;;;;19.98;8.15;;;;;;;;;;4999682;28;20083;-55
2022/01/25 11:48:07;;;;;;;21.38;8.38;;;;;;;;;;5002168;28;20032;-54
2022/01/25 11:50:36;;;;;;;19.23;7.65;;;;;;;;;;5000251;28;20033;-55
2022/01/25 11:53:06;;;;;;;27.35;8.18;;;;;;;;;;5006336;28;20017;-51
2022/01/25 11:55:42;;;;;;;20.38;8.77;;;;;;;;;;4998233;28;20192;-55
2022/01/25 11:58:14;;;;;;;19.42;8.23;;;;;;;;;;4998001;28;20084;-53
2022/01/25 12:00:51;;;;;;;21.47;8.53;;;;;;;;;;5001252;28;20132;-55
2022/01/25 12:03:29;;;;;;;22.15;8.82;;;;;;;;;;4999948;28;20279;-54
2022/01/25 12:06:17;;;;;;;16.58;7.88;;;;;;;;;;4999867;28;20036;-55
2022/01/25 12:11:45;;;;;;;23.08;6.68;;;;;;;;;;5000912;28;20032;-54
2022/01/25 12:14:14;;;;;;;17.63;7.10;;;;;;;;;;5000582;28;20456;-55
2022/01/25 12:16:50;;;;;;;21.63;7.63;;;;;;;;;;5002370;28;20029;-55
2022/01/25 12:19:18;;;;;;;20.25;7.85;;;;;;;;;;4999279;28;20083;-54
2022/01/25 12:21:52;;;;;;;18.85;7.63;;;;;;;;;;4999855;28;20037;-54
2022/01/25 12:24:35;;;;;;;25.00;8.30;;;;;;;;;;4999338;28;20129;-54
2022/01/25 12:30:07;;;;;;;23.17;6.90;;;;;;;;;;4980653;28;20144;-55
2022/01/25 12:33:05;;;;;;;23.83;6.90;;;;;;;;;;5001837;28;20041;-54
2022/01/25 12:35:59;;;;;;;17.92;6.00;;;;;;;;;;4994404;28;20093;-54
2022/01/25 12:38:45;;;;;;;19.40;5.70;;;;;;;;;;4994172;28;20117;-59
2022/01/25 12:41:18;;;;;;;15.05;6.38;;;;;;;;;;4998657;28;20026;-56
2022/01/25 12:43:45;;;;;;;17.98;5.85;;;;;;;;;;5004784;28;20109;-57
2022/01/25 12:46:20;;;;;;;20.13;6.45;;;;;;;;;;5001517;28;20175;-55
2022/01/25 12:48:48;;;;;;;15.80;5.30;;;;;;;;;;4998148;28;20022;-57
2022/01/25 12:51:24;;;;;;;18.20;7.00;;;;;;;;;;4998320;28;20093;-57
2022/01/25 12:53:53;;;;;;;15.30;5.55;;;;;;;;;;5004276;28;20117;-57
2022/01/25 12:56:28;;;;;;;18.05;6.22;;;;;;;;;;4996492;28;20061;-57
2022/01/25 12:58:59;;;;;;;12.30;5.47;;;;;;;;;;5003447;28;20120;-57
2022/01/25 13:01:27;;;;;;;12.00;5.05;;;;;;;;;;5001986;28;20034;-57
2022/01/25 13:03:56;;;;;;;18.80;5.10;;;;;;;;;;4977019;28;20030;-57
2022/01/25 13:06:28;;;;;;;21.73;6.22;;;;;;;;;;5002935;28;20029;-57
2022/01/25 13:11:29;;;;;;;17.98;5.82;;;;;;;;;;5000937;28;20047;-57
2022/01/25 13:14:17;;;;;;;21.90;5.72;;;;;;;;;;4997861;28;20100;-55
2022/01/25 13:16:51;;;;;;;19.13;5.15;;;;;;;;;;5002432;28;20026;-61
2022/01/25 13:19:22;;;;;;;17.17;5.00;;;;;;;;;;4999191;28;20037;-57
2022/01/25 13:22:01;;;;;;;13.40;5.30;;;;;;;;;;4995926;28;20022;-57
2022/01/25 13:24:32;;;;;;;11.43;4.63;;;;;;;;;;5002275;28;20025;-57
2022/01/25 13:27:12;;;;;;;12.43;5.10;;;;;;;;;;5002308;28;20295;-57
2022/01/25 13:32:35;;;;;;;15.70;5.07;;;;;;;;;;4996658;28;20037;-57
2022/01/25 13:35:15;;;;;;;16.20;4.75;;;;;;;;;;4997415;28;20127;-57
2022/01/25 13:37:43;;;;;;;10.07;4.15;;;;;;;;;;5001873;28;20026;-57
2022/01/25 13:40:09;;;;;;;13.70;4.68;;;;;;;;;;5001176;28;20519;-57
2022/01/25 13:42:43;;;;;;;14.60;4.85;;;;;;;;;;4995677;28;20029;-57
2022/01/25 13:48:02;;;;;;;20.80;5.72;;;;;;;;;;5002107;28;20544;-57
2022/01/25 13:50:28;;;;;;;15.90;5.43;;;;;;;;;;4999694;28;20054;-57
2022/01/25 13:52:54;;;;;;;14.15;5.32;;;;;;;;;;5001608;28;20481;-57
2022/01/25 13:55:20;;;;;;;14.40;5.57;;;;;;;;;;5006227;28;20036;-57
2022/01/25 13:57:45;;;;;;;9.20;3.88;;;;;;;;;;5007947;28;20401;-56
2022/01/25 14:00:12;;;;;;;13.82;5.88;;;;;;;;;;4999654;28;20634;-57
2022/01/25 14:02:38;;;;;;;15.50;5.22;;;;;;;;;;5008177;28;20065;-57
2022/01/25 14:05:04;;;;;;;14.63;5.32;;;;;;;;;;5003524;28;20392;-57
2022/01/25 14:07:39;;;;;;;10.18;4.80;;;;;;;;;;4984094;28;20033;-57
2022/01/25 14:10:17;;;;;;;21.52;5.70;;;;;;;;;;4999564;28;20032;-57
2022/01/25 14:23:48;;;;;;;22.02;8.32;;;;;;;;;;5002352;28;20056;-57
2022/01/25 14:26:15;;;;;;;24.17;6.10;;;;;;;;;;5001594;28;20021;-57
2022/01/25 14:28:53;;;;;;;23.60;5.63;;;;;;;;;;5001605;28;20030;-57
2022/01/25 14:31:22;;;;;;;14.20;5.25;;;;;;;;;;5003235;28;20040;-58
2022/01/25 14:33:56;;;;;;;22.13;6.20;;;;;;;;;;4998375;28;20263;-57
2022/01/25 14:36:24;;;;;;;17.08;5.70;;;;;;;;;;5005033;28;20099;-57
2022/01/25 14:38:52;;;;;;;20.27;5.95;;;;;;;;;;5004724;28;20109;-57
2022/01/25 14:41:25;;;;;;;16.95;6.22;;;;;;;;;;5003022;28;20029;-55
2022/01/25 14:43:57;;;;;;;12.88;5.53;;;;;;;;;;5004199;28;20572;-57
2022/01/25 14:46:25;;;;;;;17.05;5.43;;;;;;;;;;5001697;28;20740;-56
2022/01/25 14:49:16;;;;;;;21.42;4.75;;;;;;;;;;5003791;28;20524;-56
2022/01/25 14:51:45;;;;;;;17.02;5.28;;;;;;;;;;5003407;28;20107;-52
2022/01/25 14:54:15;;;;;;;11.13;5.15;;;;;;;;;;5002783;28;20424;-51
2022/01/25 14:56:48;;;;;;;21.00;6.15;;;;;;;;;;4999123;28;20032;-52
2022/01/25 14:59:23;;;;;;;14.65;4.80;;;;;;;;;;5000963;28;20304;-50
2022/01/25 15:01:49;;;;;;;16.40;5.57;;;;;;;;;;5003133;28;20116;-52
2022/01/25 15:04:15;;;;;;;21.15;5.18;;;;;;;;;;5000027;28;20493;-52
2022/01/25 15:06:40;;;;;;;15.15;5.32;;;;;;;;;;5001673;28;20037;-51
2022/01/25 15:09:06;;;;;;;13.30;5.22;;;;;;;;;;5001641;28;20251;-52
2022/01/25 15:11:32;;;;;;;15.52;5.15;;;;;;;;;;4982668;28;20468;-52
2022/01/25 15:14:07;;;;;;;14.65;6.07;;;;;;;;;;5000534;28;20363;-51
2022/01/25 15:16:33;;;;;;;14.95;5.07;;;;;;;;;;5000261;28;20035;-49
2022/01/25 15:18:58;;;;;;;12.75;5.05;;;;;;;;;;5001630;28;20041;-53
2022/01/25 15:21:24;;;;;;;15.95;4.80;;;;;;;;;;5000570;28;20481;-53
2022/01/25 15:23:50;;;;;;;16.40;5.13;;;;;;;;;;4999916;28;20063;-51
2022/01/25 15:26:18;;;;;;;16.42;4.72;;;;;;;;;;4998152;28;20034;-53
2022/01/25 15:28:54;;;;;;;13.88;5.00;;;;;;;;;;5000507;28;20565;-50
2022/01/25 15:31:20;;;;;;;24.48;5.25;;;;;;;;;;5001462;28;20040;-52
2022/01/25 15:33:48;;;;;;;14.77;4.93;;;;;;;;;;5001801;28;20034;-52
2022/01/25 15:36:16;;;;;;;22.75;5.75;;;;;;;;;;5000443;28;20030;-53
2022/01/25 15:38:44;;;;;;;16.52;5.68;;;;;;;;;;5000841;28;20038;-52
2022/01/25 15:41:11;;;;;;;23.08;6.38;;;;;;;;;;4998429;28;20046;-53
2022/01/25 15:43:51;;;;;;;15.77;5.20;;;;;;;;;;5001602;28;20081;-53
2022/01/25 15:46:23;;;;;;;19.02;5.32;;;;;;;;;;5000581;28;20026;-52
2022/01/25 15:48:49;;;;;;;33.38;5.70;;;;;;;;;;5006023;28;20053;-53
2022/01/25 15:51:15;;;;;;;20.17;5.93;;;;;;;;;;5001720;28;20033;-53
2022/01/25 15:53:40;;;;;;;25.02;5.70;;;;;;;;;;4999681;28;20162;-50
2022/01/25 15:56:06;;;;;;;14.25;5.85;;;;;;;;;;5005547;28;20042;-52
2022/01/25 15:58:32;;;;;;;21.50;6.70;;;;;;;;;;4999395;28;20158;-49
2022/01/25 16:00:57;;;;;;;13.50;5.63;;;;;;;;;;4999538;28;20390;-51
2022/01/25 16:03:23;;;;;;;14.30;5.47;;;;;;;;;;4998993;28;20065;-50
2022/01/25 16:05:51;;;;;;;21.02;6.82;;;;;;;;;;4997032;28;20472;-51
2022/01/25 16:08:17;;;;;;;16.35;6.45;;;;;;;;;;4997365;28;20030;-52
2022/01/25 16:10:45;;;;;;;21.92;6.63;;;;;;;;;;5000834;28;20501;-53
2022/01/25 16:13:12;;;;;;;25.42;5.97;;;;;;;;;;4999899;28;20157;-53
2022/01/25 16:15:38;;;;;;;14.73;6.05;;;;;;;;;;4999241;28;20615;-49
2022/01/25 16:18:04;;;;;;;15.20;5.32;;;;;;;;;;5001721;28;20050;-52
2022/01/25 16:20:29;;;;;;;29.25;6.63;;;;;;;;;;4999192;28;20378;-51
2022/01/25 16:22:55;;;;;;;25.73;6.18;;;;;;;;;;4999910;28;20358;-52
2022/01/25 16:25:22;;;;;;;12.20;5.82;;;;;;;;;;4997159;28;20109;-52
2022/01/25 16:27:48;;;;;;;18.92;5.80;;;;;;;;;;5000355;28;20478;-53
2022/01/25 16:30:14;;;;;;;32.08;5.80;;;;;;;;;;5000071;28;20129;-54
2022/01/25 16:32:43;;;;;;;26.92;6.10;;;;;;;;;;5001589;28;20441;-54
2022/01/25 16:35:13;;;;;;;17.65;6.13;;;;;;;;;;5005132;28;20498;-54
2022/01/25 16:37:38;;;;;;;16.13;5.82;;;;;;;;;;5002243;28;20500;-53
2022/01/25 16:40:06;;;;;;;17.50;6.72;;;;;;;;;;4996835;28;20057;-53